sensor_id;sensor_type;location;lat;lon;timestamp;P1;durP1;ratioP1;P2;durP2;ratioP2
69979;SDS011;57318;56.232;43.944;2024-01-25T00:01:39;20.97;;;7.37;;
69979;SDS011;57318;56.232;43.944;2024-01-25T00:04:05;37.43;;;11.80;;
69979;SDS011;57318;56.232;43.944;2024-01-25T00:06:30;31.40;;;10.67;;
69979;SDS011;57318;56.232;43.944;2024-01-25T00:08:56;30.80;;;8.70;;
69979;SDS011;57318;56.232;43.944;2024-01-25T00:11:21;32.33;;;9.53;;
69979;SDS011;57318;56.232;43.944;2024-01-25T00:13:47;33.43;;;12.57;;
69979;SDS011;57318;56.232;43.944;2024-01-25T00:16:13;36.50;;;12.53;;
69979;SDS011;57318;56.232;43.944;2024-01-25T00:18:38;38.50;;;14.03;;
69979;SDS011;57318;56.232;43.944;2024-01-25T00:21:04;31.47;;;10.47;;
69979;SDS011;57318;56.232;43.944;2024-01-25T00:23:30;22.37;;;8.40;;
69979;SDS011;57318;56.232;43.944;2024-01-25T00:25:55;20.53;;;8.83;;
69979;SDS011;57318;56.232;43.944;2024-01-25T00:28:24;33.53;;;10.65;;
69979;SDS011;57318;56.232;43.944;2024-01-25T00:30:50;24.70;;;9.00;;
69979;SDS011;57318;56.232;43.944;2024-01-25T00:33:16;29.07;;;9.00;;
69979;SDS011;57318;56.232;43.944;2024-01-25T00:35:42;30.93;;;11.43;;
69979;SDS011;57318;56.232;43.944;2024-01-25T00:38:08;30.35;;;9.43;;
69979;SDS011;57318;56.232;43.944;2024-01-25T00:40:34;34.05;;;12.25;;
69979;SDS011;57318;56.232;43.944;2024-01-25T00:43:00;34.35;;;12.98;;
69979;SDS011;57318;56.232;43.944;2024-01-25T00:45:26;32.53;;;9.43;;
69979;SDS011;57318;56.232;43.944;2024-01-25T00:47:52;27.27;;;9.32;;
69979;SDS011;57318;56.232;43.944;2024-01-25T00:50:18;29.73;;;10.55;;
69979;SDS011;57318;56.232;43.944;2024-01-25T00:52:47;26.58;;;8.13;;
69979;SDS011;57318;56.232;43.944;2024-01-25T00:55:16;34.08;;;12.25;;
69979;SDS011;57318;56.232;43.944;2024-01-25T00:57:42;27.42;;;9.73;;
69979;SDS011;57318;56.232;43.944;2024-01-25T01:00:08;33.28;;;11.40;;
69979;SDS011;57318;56.232;43.944;2024-01-25T01:02:43;25.75;;;10.18;;
69979;SDS011;57318;56.232;43.944;2024-01-25T01:05:10;37.00;;;10.52;;
69979;SDS011;57318;56.232;43.944;2024-01-25T01:07:38;36.22;;;11.50;;
69979;SDS011;57318;56.232;43.944;2024-01-25T01:10:07;35.95;;;12.40;;
69979;SDS011;57318;56.232;43.944;2024-01-25T01:12:33;27.95;;;11.00;;
69979;SDS011;57318;56.232;43.944;2024-01-25T01:14:59;29.10;;;10.45;;
69979;SDS011;57318;56.232;43.944;2024-01-25T01:17:25;39.55;;;13.40;;
69979;SDS011;57318;56.232;43.944;2024-01-25T01:19:51;27.67;;;8.35;;
69979;SDS011;57318;56.232;43.944;2024-01-25T01:22:17;36.23;;;10.53;;
69979;SDS011;57318;56.232;43.944;2024-01-25T01:24:43;26.23;;;9.90;;
69979;SDS011;57318;56.232;43.944;2024-01-25T01:27:08;32.83;;;11.63;;
69979;SDS011;57318;56.232;43.944;2024-01-25T01:29:34;25.33;;;10.87;;
69979;SDS011;57318;56.232;43.944;2024-01-25T01:32:00;37.43;;;12.43;;
69979;SDS011;57318;56.232;43.944;2024-01-25T01:34:25;27.10;;;8.40;;
69979;SDS011;57318;56.232;43.944;2024-01-25T01:36:51;29.90;;;10.00;;
69979;SDS011;57318;56.232;43.944;2024-01-25T01:39:17;39.50;;;15.20;;
69979;SDS011;57318;56.232;43.944;2024-01-25T01:41:46;35.53;;;13.93;;
69979;SDS011;57318;56.232;43.944;2024-01-25T01:44:12;38.97;;;13.25;;
69979;SDS011;57318;56.232;43.944;2024-01-25T01:46:38;37.80;;;11.60;;
69979;SDS011;57318;56.232;43.944;2024-01-25T01:49:08;36.13;;;13.95;;
69979;SDS011;57318;56.232;43.944;2024-01-25T01:51:37;32.95;;;12.13;;
69979;SDS011;57318;56.232;43.944;2024-01-25T01:54:05;32.42;;;11.73;;
69979;SDS011;57318;56.232;43.944;2024-01-25T01:56:32;24.38;;;8.32;;
69979;SDS011;57318;56.232;43.944;2024-01-25T02:01:28;31.38;;;10.13;;
69979;SDS011;57318;56.232;43.944;2024-01-25T02:03:54;35.22;;;13.68;;
69979;SDS011;57318;56.232;43.944;2024-01-25T02:06:21;41.65;;;13.50;;
69979;SDS011;57318;56.232;43.944;2024-01-25T02:08:48;36.58;;;13.02;;
69979;SDS011;57318;56.232;43.944;2024-01-25T02:11:16;26.42;;;10.38;;
69979;SDS011;57318;56.232;43.944;2024-01-25T02:13:43;44.20;;;16.25;;
69979;SDS011;57318;56.232;43.944;2024-01-25T02:16:09;21.98;;;7.85;;
69979;SDS011;57318;56.232;43.944;2024-01-25T02:18:55;33.53;;;12.23;;
69979;SDS011;57318;56.232;43.944;2024-01-25T02:21:23;44.42;;;17.23;;
69979;SDS011;57318;56.232;43.944;2024-01-25T02:23:49;35.00;;;11.32;;
69979;SDS011;57318;56.232;43.944;2024-01-25T02:26:16;40.08;;;12.25;;
69979;SDS011;57318;56.232;43.944;2024-01-25T02:28:41;29.23;;;12.37;;
69979;SDS011;57318;56.232;43.944;2024-01-25T02:31:07;28.50;;;11.30;;
69979;SDS011;57318;56.232;43.944;2024-01-25T02:33:33;20.43;;;7.40;;
69979;SDS011;57318;56.232;43.944;2024-01-25T02:35:58;36.10;;;11.53;;
69979;SDS011;57318;56.232;43.944;2024-01-25T02:38:24;33.65;;;10.45;;
69979;SDS011;57318;56.232;43.944;2024-01-25T02:40:50;35.90;;;11.80;;
69979;SDS011;57318;56.232;43.944;2024-01-25T02:43:16;39.13;;;13.15;;
69979;SDS011;57318;56.232;43.944;2024-01-25T02:45:41;37.10;;;13.47;;
69979;SDS011;57318;56.232;43.944;2024-01-25T02:48:07;37.70;;;12.87;;
69979;SDS011;57318;56.232;43.944;2024-01-25T02:50:33;42.80;;;13.87;;
69979;SDS011;57318;56.232;43.944;2024-01-25T02:52:59;37.15;;;13.68;;
69979;SDS011;57318;56.232;43.944;2024-01-25T02:57:50;29.73;;;10.63;;
69979;SDS011;57318;56.232;43.944;2024-01-25T03:00:16;41.07;;;12.43;;
69979;SDS011;57318;56.232;43.944;2024-01-25T03:02:42;34.38;;;12.55;;
69979;SDS011;57318;56.232;43.944;2024-01-25T03:05:07;26.10;;;6.80;;
69979;SDS011;57318;56.232;43.944;2024-01-25T03:07:33;28.13;;;11.20;;
69979;SDS011;57318;56.232;43.944;2024-01-25T03:09:59;36.10;;;12.27;;
69979;SDS011;57318;56.232;43.944;2024-01-25T03:12:25;33.97;;;11.40;;
69979;SDS011;57318;56.232;43.944;2024-01-25T03:14:50;35.03;;;11.40;;
69979;SDS011;57318;56.232;43.944;2024-01-25T03:17:16;40.83;;;13.23;;
69979;SDS011;57318;56.232;43.944;2024-01-25T03:19:42;38.30;;;13.88;;
69979;SDS011;57318;56.232;43.944;2024-01-25T03:22:07;39.63;;;14.60;;
69979;SDS011;57318;56.232;43.944;2024-01-25T03:24:33;31.70;;;11.37;;
69979;SDS011;57318;56.232;43.944;2024-01-25T03:27:03;41.13;;;15.20;;
69979;SDS011;57318;56.232;43.944;2024-01-25T03:29:29;47.38;;;13.85;;
69979;SDS011;57318;56.232;43.944;2024-01-25T03:31:54;30.80;;;11.40;;
69979;SDS011;57318;56.232;43.944;2024-01-25T03:34:20;41.40;;;13.73;;
69979;SDS011;57318;56.232;43.944;2024-01-25T03:36:46;36.97;;;12.82;;
69979;SDS011;57318;56.232;43.944;2024-01-25T03:39:12;36.20;;;12.83;;
69979;SDS011;57318;56.232;43.944;2024-01-25T03:41:37;37.53;;;13.63;;
69979;SDS011;57318;56.232;43.944;2024-01-25T03:44:03;29.23;;;10.63;;
69979;SDS011;57318;56.232;43.944;2024-01-25T03:46:29;31.75;;;11.45;;
69979;SDS011;57318;56.232;43.944;2024-01-25T03:48:54;35.57;;;14.10;;
69979;SDS011;57318;56.232;43.944;2024-01-25T03:51:20;35.73;;;11.67;;
69979;SDS011;57318;56.232;43.944;2024-01-25T03:53:46;28.93;;;11.83;;
69979;SDS011;57318;56.232;43.944;2024-01-25T03:56:12;36.87;;;12.00;;
69979;SDS011;57318;56.232;43.944;2024-01-25T03:58:44;37.13;;;11.68;;
69979;SDS011;57318;56.232;43.944;2024-01-25T04:01:10;30.73;;;11.15;;
69979;SDS011;57318;56.232;43.944;2024-01-25T04:03:36;33.88;;;13.02;;
69979;SDS011;57318;56.232;43.944;2024-01-25T04:06:02;30.60;;;9.43;;
69979;SDS011;57318;56.232;43.944;2024-01-25T04:08:28;36.80;;;13.55;;
69979;SDS011;57318;56.232;43.944;2024-01-25T04:10:53;35.80;;;13.43;;
69979;SDS011;57318;56.232;43.944;2024-01-25T04:13:19;32.38;;;11.85;;
69979;SDS011;57318;56.232;43.944;2024-01-25T04:15:45;26.93;;;9.77;;
69979;SDS011;57318;56.232;43.944;2024-01-25T04:18:10;30.90;;;11.00;;
69979;SDS011;57318;56.232;43.944;2024-01-25T04:20:36;27.50;;;10.60;;
69979;SDS011;57318;56.232;43.944;2024-01-25T04:23:02;32.43;;;11.00;;
69979;SDS011;57318;56.232;43.944;2024-01-25T04:25:27;29.00;;;11.20;;
69979;SDS011;57318;56.232;43.944;2024-01-25T04:27:54;34.17;;;9.80;;
69979;SDS011;57318;56.232;43.944;2024-01-25T04:30:20;25.77;;;9.52;;
69979;SDS011;57318;56.232;43.944;2024-01-25T04:32:46;32.10;;;13.63;;
69979;SDS011;57318;56.232;43.944;2024-01-25T04:35:11;23.20;;;8.53;;
69979;SDS011;57318;56.232;43.944;2024-01-25T04:37:37;28.80;;;10.32;;
69979;SDS011;57318;56.232;43.944;2024-01-25T04:40:03;24.37;;;9.07;;
69979;SDS011;57318;56.232;43.944;2024-01-25T04:42:30;31.73;;;12.13;;
69979;SDS011;57318;56.232;43.944;2024-01-25T04:44:56;29.70;;;11.90;;
69979;SDS011;57318;56.232;43.944;2024-01-25T04:47:22;36.47;;;11.23;;
69979;SDS011;57318;56.232;43.944;2024-01-25T04:49:47;21.33;;;8.27;;
69979;SDS011;57318;56.232;43.944;2024-01-25T04:52:13;25.67;;;11.03;;
69979;SDS011;57318;56.232;43.944;2024-01-25T04:54:39;23.80;;;8.53;;
69979;SDS011;57318;56.232;43.944;2024-01-25T04:57:04;30.33;;;10.57;;
69979;SDS011;57318;56.232;43.944;2024-01-25T04:59:35;26.63;;;10.68;;
69979;SDS011;57318;56.232;43.944;2024-01-25T05:02:01;28.95;;;10.18;;
69979;SDS011;57318;56.232;43.944;2024-01-25T05:04:28;30.90;;;11.07;;
69979;SDS011;57318;56.232;43.944;2024-01-25T05:07:00;25.98;;;10.50;;
69979;SDS011;57318;56.232;43.944;2024-01-25T05:09:26;31.08;;;11.18;;
69979;SDS011;57318;56.232;43.944;2024-01-25T05:11:52;28.07;;;10.47;;
69979;SDS011;57318;56.232;43.944;2024-01-25T05:14:23;28.02;;;10.38;;
69979;SDS011;57318;56.232;43.944;2024-01-25T05:16:49;29.42;;;12.20;;
69979;SDS011;57318;56.232;43.944;2024-01-25T05:19:15;26.70;;;8.57;;
69979;SDS011;57318;56.232;43.944;2024-01-25T05:21:42;24.33;;;6.53;;
69979;SDS011;57318;56.232;43.944;2024-01-25T05:24:08;22.40;;;7.20;;
69979;SDS011;57318;56.232;43.944;2024-01-25T05:26:35;24.92;;;9.77;;
69979;SDS011;57318;56.232;43.944;2024-01-25T05:29:00;24.40;;;9.40;;
69979;SDS011;57318;56.232;43.944;2024-01-25T05:31:26;32.57;;;11.77;;
69979;SDS011;57318;56.232;43.944;2024-01-25T05:33:52;23.60;;;9.00;;
69979;SDS011;57318;56.232;43.944;2024-01-25T05:36:17;27.37;;;9.90;;
69979;SDS011;57318;56.232;43.944;2024-01-25T05:38:43;21.53;;;7.93;;
69979;SDS011;57318;56.232;43.944;2024-01-25T05:41:09;26.60;;;9.23;;
69979;SDS011;57318;56.232;43.944;2024-01-25T05:43:34;20.60;;;8.93;;
69979;SDS011;57318;56.232;43.944;2024-01-25T05:46:00;25.90;;;10.47;;
69979;SDS011;57318;56.232;43.944;2024-01-25T05:48:26;24.57;;;9.07;;
69979;SDS011;57318;56.232;43.944;2024-01-25T05:50:51;28.33;;;10.30;;
69979;SDS011;57318;56.232;43.944;2024-01-25T05:53:17;31.90;;;13.07;;
69979;SDS011;57318;56.232;43.944;2024-01-25T05:55:45;19.73;;;7.68;;
69979;SDS011;57318;56.232;43.944;2024-01-25T05:58:11;19.70;;;9.00;;
69979;SDS011;57318;56.232;43.944;2024-01-25T06:00:37;23.90;;;8.00;;
69979;SDS011;57318;56.232;43.944;2024-01-25T06:03:02;14.60;;;6.30;;
69979;SDS011;57318;56.232;43.944;2024-01-25T06:05:28;16.33;;;7.70;;
69979;SDS011;57318;56.232;43.944;2024-01-25T06:07:54;21.60;;;7.70;;
69979;SDS011;57318;56.232;43.944;2024-01-25T06:10:19;21.77;;;9.87;;
69979;SDS011;57318;56.232;43.944;2024-01-25T06:12:45;16.57;;;7.10;;
69979;SDS011;57318;56.232;43.944;2024-01-25T06:15:10;21.03;;;8.10;;
69979;SDS011;57318;56.232;43.944;2024-01-25T06:17:36;17.13;;;6.97;;
69979;SDS011;57318;56.232;43.944;2024-01-25T06:20:02;22.77;;;7.93;;
69979;SDS011;57318;56.232;43.944;2024-01-25T06:22:29;24.17;;;7.40;;
69979;SDS011;57318;56.232;43.944;2024-01-25T06:24:54;19.77;;;8.73;;
69979;SDS011;57318;56.232;43.944;2024-01-25T06:27:20;19.90;;;7.63;;
69979;SDS011;57318;56.232;43.944;2024-01-25T06:29:46;21.57;;;8.60;;
69979;SDS011;57318;56.232;43.944;2024-01-25T06:32:11;22.70;;;9.57;;
69979;SDS011;57318;56.232;43.944;2024-01-25T06:34:37;20.27;;;7.23;;
69979;SDS011;57318;56.232;43.944;2024-01-25T06:37:03;21.47;;;8.17;;
69979;SDS011;57318;56.232;43.944;2024-01-25T06:39:28;21.00;;;9.27;;
69979;SDS011;57318;56.232;43.944;2024-01-25T06:41:54;25.40;;;9.50;;
69979;SDS011;57318;56.232;43.944;2024-01-25T06:44:20;20.40;;;8.95;;
69979;SDS011;57318;56.232;43.944;2024-01-25T06:46:46;15.90;;;6.83;;
69979;SDS011;57318;56.232;43.944;2024-01-25T06:49:12;16.10;;;7.43;;
69979;SDS011;57318;56.232;43.944;2024-01-25T06:51:37;15.97;;;6.97;;
69979;SDS011;57318;56.232;43.944;2024-01-25T06:54:04;17.42;;;7.07;;
69979;SDS011;57318;56.232;43.944;2024-01-25T06:56:29;25.13;;;9.40;;
69979;SDS011;57318;56.232;43.944;2024-01-25T06:58:55;26.93;;;11.33;;
69979;SDS011;57318;56.232;43.944;2024-01-25T07:01:21;14.20;;;6.60;;
69979;SDS011;57318;56.232;43.944;2024-01-25T07:03:47;18.98;;;8.25;;
69979;SDS011;57318;56.232;43.944;2024-01-25T07:06:16;23.40;;;9.05;;
69979;SDS011;57318;56.232;43.944;2024-01-25T07:08:43;17.95;;;6.85;;
69979;SDS011;57318;56.232;43.944;2024-01-25T07:11:09;13.20;;;6.67;;
69979;SDS011;57318;56.232;43.944;2024-01-25T07:13:35;19.20;;;7.63;;
69979;SDS011;57318;56.232;43.944;2024-01-25T07:16:00;14.43;;;6.73;;
69979;SDS011;57318;56.232;43.944;2024-01-25T07:18:26;14.47;;;6.07;;
69979;SDS011;57318;56.232;43.944;2024-01-25T07:20:51;16.70;;;6.53;;
69979;SDS011;57318;56.232;43.944;2024-01-25T07:23:17;19.50;;;7.07;;
69979;SDS011;57318;56.232;43.944;2024-01-25T07:25:43;18.45;;;8.63;;
69979;SDS011;57318;56.232;43.944;2024-01-25T07:28:10;17.48;;;7.18;;
69979;SDS011;57318;56.232;43.944;2024-01-25T07:30:36;15.23;;;5.90;;
69979;SDS011;57318;56.232;43.944;2024-01-25T07:33:01;14.23;;;6.20;;
69979;SDS011;57318;56.232;43.944;2024-01-25T07:35:27;16.40;;;6.03;;
69979;SDS011;57318;56.232;43.944;2024-01-25T07:37:53;11.37;;;4.83;;
69979;SDS011;57318;56.232;43.944;2024-01-25T07:40:19;15.87;;;5.13;;
69979;SDS011;57318;56.232;43.944;2024-01-25T07:42:46;18.40;;;6.78;;
69979;SDS011;57318;56.232;43.944;2024-01-25T07:45:12;20.25;;;7.90;;
69979;SDS011;57318;56.232;43.944;2024-01-25T07:47:40;20.85;;;8.65;;
69979;SDS011;57318;56.232;43.944;2024-01-25T07:50:09;14.15;;;5.60;;
69979;SDS011;57318;56.232;43.944;2024-01-25T07:52:35;13.52;;;6.50;;
69979;SDS011;57318;56.232;43.944;2024-01-25T07:55:01;19.67;;;7.60;;
69979;SDS011;57318;56.232;43.944;2024-01-25T07:57:29;16.80;;;5.82;;
69979;SDS011;57318;56.232;43.944;2024-01-25T07:59:55;17.20;;;7.53;;
69979;SDS011;57318;56.232;43.944;2024-01-25T08:02:21;15.07;;;6.73;;
69979;SDS011;57318;56.232;43.944;2024-01-25T08:04:49;14.77;;;6.53;;
69979;SDS011;57318;56.232;43.944;2024-01-25T08:07:15;19.43;;;6.83;;
69979;SDS011;57318;56.232;43.944;2024-01-25T08:09:40;21.33;;;8.30;;
69979;SDS011;57318;56.232;43.944;2024-01-25T08:12:06;20.47;;;8.73;;
69979;SDS011;57318;56.232;43.944;2024-01-25T08:14:32;21.20;;;6.03;;
69979;SDS011;57318;56.232;43.944;2024-01-25T08:16:57;15.40;;;6.47;;
69979;SDS011;57318;56.232;43.944;2024-01-25T08:19:23;18.80;;;7.43;;
69979;SDS011;57318;56.232;43.944;2024-01-25T08:21:49;16.58;;;7.13;;
69979;SDS011;57318;56.232;43.944;2024-01-25T08:24:15;13.00;;;5.87;;
69979;SDS011;57318;56.232;43.944;2024-01-25T08:26:40;19.23;;;7.67;;
69979;SDS011;57318;56.232;43.944;2024-01-25T08:29:06;17.60;;;6.27;;
69979;SDS011;57318;56.232;43.944;2024-01-25T08:31:33;18.53;;;6.20;;
69979;SDS011;57318;56.232;43.944;2024-01-25T08:33:58;13.00;;;5.88;;
69979;SDS011;57318;56.232;43.944;2024-01-25T08:36:24;17.60;;;7.65;;
69979;SDS011;57318;56.232;43.944;2024-01-25T08:38:50;13.55;;;4.78;;
69979;SDS011;57318;56.232;43.944;2024-01-25T08:41:16;15.43;;;6.80;;
69979;SDS011;57318;56.232;43.944;2024-01-25T08:43:42;11.60;;;5.63;;
69979;SDS011;57318;56.232;43.944;2024-01-25T08:46:08;10.43;;;5.30;;
69979;SDS011;57318;56.232;43.944;2024-01-25T08:48:34;15.38;;;6.53;;
69979;SDS011;57318;56.232;43.944;2024-01-25T08:50:59;10.30;;;5.50;;
69979;SDS011;57318;56.232;43.944;2024-01-25T08:53:25;16.80;;;6.40;;
69979;SDS011;57318;56.232;43.944;2024-01-25T08:55:54;13.00;;;6.22;;
69979;SDS011;57318;56.232;43.944;2024-01-25T08:58:20;9.50;;;4.72;;
69979;SDS011;57318;56.232;43.944;2024-01-25T09:00:47;11.52;;;5.15;;
69979;SDS011;57318;56.232;43.944;2024-01-25T09:03:13;15.00;;;7.03;;
69979;SDS011;57318;56.232;43.944;2024-01-25T09:05:40;11.27;;;4.93;;
69979;SDS011;57318;56.232;43.944;2024-01-25T09:08:13;12.75;;;5.60;;
69979;SDS011;57318;56.232;43.944;2024-01-25T09:10:40;9.88;;;5.57;;
69979;SDS011;57318;56.232;43.944;2024-01-25T09:13:07;12.13;;;5.80;;
69979;SDS011;57318;56.232;43.944;2024-01-25T09:17:59;13.07;;;4.05;;
69979;SDS011;57318;56.232;43.944;2024-01-25T09:20:24;13.13;;;4.47;;
69979;SDS011;57318;56.232;43.944;2024-01-25T09:22:51;18.37;;;5.10;;
69979;SDS011;57318;56.232;43.944;2024-01-25T09:25:19;8.00;;;4.28;;
69979;SDS011;57318;56.232;43.944;2024-01-25T09:27:45;11.63;;;5.15;;
69979;SDS011;57318;56.232;43.944;2024-01-25T09:30:11;16.85;;;6.53;;
69979;SDS011;57318;56.232;43.944;2024-01-25T09:32:37;15.00;;;6.50;;
69979;SDS011;57318;56.232;43.944;2024-01-25T09:35:03;11.97;;;5.30;;
69979;SDS011;57318;56.232;43.944;2024-01-25T09:37:30;11.55;;;4.95;;
69979;SDS011;57318;56.232;43.944;2024-01-25T09:39:55;11.67;;;5.30;;
69979;SDS011;57318;56.232;43.944;2024-01-25T09:42:24;12.60;;;5.70;;
69979;SDS011;57318;56.232;43.944;2024-01-25T09:44:50;11.30;;;4.90;;
69979;SDS011;57318;56.232;43.944;2024-01-25T09:47:19;12.98;;;6.70;;
69979;SDS011;57318;56.232;43.944;2024-01-25T09:49:46;9.90;;;5.15;;
69979;SDS011;57318;56.232;43.944;2024-01-25T09:52:12;7.45;;;3.53;;
69979;SDS011;57318;56.232;43.944;2024-01-25T09:54:38;12.88;;;4.85;;
69979;SDS011;57318;56.232;43.944;2024-01-25T09:57:14;10.85;;;5.18;;
69979;SDS011;57318;56.232;43.944;2024-01-25T09:59:45;13.05;;;6.03;;
69979;SDS011;57318;56.232;43.944;2024-01-25T10:02:11;13.52;;;5.95;;
69979;SDS011;57318;56.232;43.944;2024-01-25T10:04:37;10.60;;;4.95;;
69979;SDS011;57318;56.232;43.944;2024-01-25T10:07:03;15.45;;;6.30;;
69979;SDS011;57318;56.232;43.944;2024-01-25T10:09:37;12.55;;;4.97;;
69979;SDS011;57318;56.232;43.944;2024-01-25T10:12:04;12.60;;;5.10;;
69979;SDS011;57318;56.232;43.944;2024-01-25T10:14:30;11.27;;;4.80;;
69979;SDS011;57318;56.232;43.944;2024-01-25T10:16:57;14.17;;;6.17;;
69979;SDS011;57318;56.232;43.944;2024-01-25T10:19:23;9.52;;;4.07;;
69979;SDS011;57318;56.232;43.944;2024-01-25T10:21:49;13.83;;;5.73;;
69979;SDS011;57318;56.232;43.944;2024-01-25T10:24:14;16.10;;;6.30;;
69979;SDS011;57318;56.232;43.944;2024-01-25T10:26:40;9.90;;;5.27;;
69979;SDS011;57318;56.232;43.944;2024-01-25T10:29:08;13.55;;;5.18;;
69979;SDS011;57318;56.232;43.944;2024-01-25T10:31:36;10.10;;;4.03;;
69979;SDS011;57318;56.232;43.944;2024-01-25T10:34:04;12.50;;;5.63;;
69979;SDS011;57318;56.232;43.944;2024-01-25T10:36:32;8.48;;;4.60;;
69979;SDS011;57318;56.232;43.944;2024-01-25T10:38:58;15.88;;;6.00;;
69979;SDS011;57318;56.232;43.944;2024-01-25T10:41:29;13.45;;;6.07;;
69979;SDS011;57318;56.232;43.944;2024-01-25T10:43:56;10.30;;;5.35;;
69979;SDS011;57318;56.232;43.944;2024-01-25T10:46:22;18.70;;;6.93;;
69979;SDS011;57318;56.232;43.944;2024-01-25T10:48:48;13.85;;;5.43;;
69979;SDS011;57318;56.232;43.944;2024-01-25T10:51:16;11.80;;;4.78;;
69979;SDS011;57318;56.232;43.944;2024-01-25T10:53:43;14.30;;;6.20;;
69979;SDS011;57318;56.232;43.944;2024-01-25T10:56:09;12.70;;;5.88;;
69979;SDS011;57318;56.232;43.944;2024-01-25T10:58:40;12.98;;;6.13;;
69979;SDS011;57318;56.232;43.944;2024-01-25T11:01:09;13.45;;;5.57;;
69979;SDS011;57318;56.232;43.944;2024-01-25T11:03:41;15.80;;;6.13;;
69979;SDS011;57318;56.232;43.944;2024-01-25T11:06:07;14.18;;;4.88;;
69979;SDS011;57318;56.232;43.944;2024-01-25T11:08:35;10.23;;;5.25;;
69979;SDS011;57318;56.232;43.944;2024-01-25T11:11:06;8.23;;;4.93;;
69979;SDS011;57318;56.232;43.944;2024-01-25T11:16:17;12.77;;;6.82;;
69979;SDS011;57318;56.232;43.944;2024-01-25T11:18:49;13.80;;;5.85;;
69979;SDS011;57318;56.232;43.944;2024-01-25T11:21:22;13.88;;;6.60;;
69979;SDS011;57318;56.232;43.944;2024-01-25T11:23:58;10.85;;;5.78;;
69979;SDS011;57318;56.232;43.944;2024-01-25T11:26:27;14.48;;;5.90;;
69979;SDS011;57318;56.232;43.944;2024-01-25T11:28:52;14.63;;;6.63;;
69979;SDS011;57318;56.232;43.944;2024-01-25T11:31:18;15.73;;;5.83;;
69979;SDS011;57318;56.232;43.944;2024-01-25T11:33:44;15.80;;;6.93;;
69979;SDS011;57318;56.232;43.944;2024-01-25T11:36:11;18.27;;;6.60;;
69979;SDS011;57318;56.232;43.944;2024-01-25T11:38:36;11.90;;;6.43;;
69979;SDS011;57318;56.232;43.944;2024-01-25T11:41:02;18.93;;;6.87;;
69979;SDS011;57318;56.232;43.944;2024-01-25T11:43:27;18.37;;;8.13;;
69979;SDS011;57318;56.232;43.944;2024-01-25T11:45:53;17.53;;;7.67;;
69979;SDS011;57318;56.232;43.944;2024-01-25T11:48:19;12.33;;;6.13;;
69979;SDS011;57318;56.232;43.944;2024-01-25T11:50:45;13.90;;;5.75;;
69979;SDS011;57318;56.232;43.944;2024-01-25T11:53:11;15.43;;;6.40;;
69979;SDS011;57318;56.232;43.944;2024-01-25T11:55:37;14.63;;;6.40;;
69979;SDS011;57318;56.232;43.944;2024-01-25T11:58:02;18.20;;;7.77;;
69979;SDS011;57318;56.232;43.944;2024-01-25T12:00:28;15.10;;;7.40;;
69979;SDS011;57318;56.232;43.944;2024-01-25T12:02:54;12.60;;;6.40;;
69979;SDS011;57318;56.232;43.944;2024-01-25T12:07:47;18.05;;;7.47;;
69979;SDS011;57318;56.232;43.944;2024-01-25T12:10:15;20.27;;;7.93;;
69979;SDS011;57318;56.232;43.944;2024-01-25T12:12:42;15.95;;;5.97;;
69979;SDS011;57318;56.232;43.944;2024-01-25T12:15:08;13.40;;;5.33;;
69979;SDS011;57318;56.232;43.944;2024-01-25T12:17:34;14.73;;;5.70;;
69979;SDS011;57318;56.232;43.944;2024-01-25T12:20:09;13.52;;;4.43;;
69979;SDS011;57318;56.232;43.944;2024-01-25T12:22:38;15.93;;;7.25;;
69979;SDS011;57318;56.232;43.944;2024-01-25T12:25:06;16.15;;;7.07;;
69979;SDS011;57318;56.232;43.944;2024-01-25T12:27:34;13.80;;;5.75;;
69979;SDS011;57318;56.232;43.944;2024-01-25T12:30:00;15.85;;;7.40;;
69979;SDS011;57318;56.232;43.944;2024-01-25T12:32:26;15.20;;;6.00;;
69979;SDS011;57318;56.232;43.944;2024-01-25T12:34:59;13.17;;;6.40;;
69979;SDS011;57318;56.232;43.944;2024-01-25T12:37:32;15.63;;;6.88;;
69979;SDS011;57318;56.232;43.944;2024-01-25T12:39:58;18.30;;;7.47;;
69979;SDS011;57318;56.232;43.944;2024-01-25T12:42:24;11.57;;;5.60;;
69979;SDS011;57318;56.232;43.944;2024-01-25T12:45:00;14.53;;;5.83;;
69979;SDS011;57318;56.232;43.944;2024-01-25T12:47:25;19.47;;;7.13;;
69979;SDS011;57318;56.232;43.944;2024-01-25T12:49:52;13.63;;;6.47;;
69979;SDS011;57318;56.232;43.944;2024-01-25T12:52:18;21.30;;;8.45;;
69979;SDS011;57318;56.232;43.944;2024-01-25T12:54:44;12.87;;;6.30;;
69979;SDS011;57318;56.232;43.944;2024-01-25T12:57:09;16.97;;;6.17;;
69979;SDS011;57318;56.232;43.944;2024-01-25T12:59:35;16.03;;;6.17;;
69979;SDS011;57318;56.232;43.944;2024-01-25T13:02:02;17.17;;;6.32;;
69979;SDS011;57318;56.232;43.944;2024-01-25T13:06:55;19.98;;;8.73;;
69979;SDS011;57318;56.232;43.944;2024-01-25T13:09:30;16.52;;;6.80;;
69979;SDS011;57318;56.232;43.944;2024-01-25T13:12:02;15.35;;;6.68;;
69979;SDS011;57318;56.232;43.944;2024-01-25T13:14:29;18.55;;;6.82;;
69979;SDS011;57318;56.232;43.944;2024-01-25T13:16:55;13.48;;;5.88;;
69979;SDS011;57318;56.232;43.944;2024-01-25T13:19:20;10.48;;;4.93;;
69979;SDS011;57318;56.232;43.944;2024-01-25T13:21:49;14.23;;;5.82;;
69979;SDS011;57318;56.232;43.944;2024-01-25T13:24:17;15.75;;;6.68;;
69979;SDS011;57318;56.232;43.944;2024-01-25T13:26:43;15.80;;;5.88;;
69979;SDS011;57318;56.232;43.944;2024-01-25T13:29:09;12.50;;;6.40;;
69979;SDS011;57318;56.232;43.944;2024-01-25T13:31:39;14.73;;;6.38;;
69979;SDS011;57318;56.232;43.944;2024-01-25T13:34:05;17.20;;;6.90;;
69979;SDS011;57318;56.232;43.944;2024-01-25T13:36:31;16.20;;;6.37;;
69979;SDS011;57318;56.232;43.944;2024-01-25T13:38:56;17.83;;;7.07;;
69979;SDS011;57318;56.232;43.944;2024-01-25T13:41:22;10.60;;;5.97;;
69979;SDS011;57318;56.232;43.944;2024-01-25T13:43:47;12.97;;;6.07;;
69979;SDS011;57318;56.232;43.944;2024-01-25T13:46:13;20.33;;;6.40;;
69979;SDS011;57318;56.232;43.944;2024-01-25T13:48:39;14.70;;;5.93;;
69979;SDS011;57318;56.232;43.944;2024-01-25T13:51:04;15.20;;;6.23;;
69979;SDS011;57318;56.232;43.944;2024-01-25T13:53:30;14.40;;;5.77;;
69979;SDS011;57318;56.232;43.944;2024-01-25T13:55:56;15.85;;;5.22;;
69979;SDS011;57318;56.232;43.944;2024-01-25T13:58:22;14.97;;;6.77;;
69979;SDS011;57318;56.232;43.944;2024-01-25T14:00:48;16.07;;;6.57;;
69979;SDS011;57318;56.232;43.944;2024-01-25T14:03:14;16.37;;;6.07;;
69979;SDS011;57318;56.232;43.944;2024-01-25T14:05:42;11.63;;;4.80;;
69979;SDS011;57318;56.232;43.944;2024-01-25T14:08:07;18.85;;;6.13;;
69979;SDS011;57318;56.232;43.944;2024-01-25T14:10:33;14.47;;;5.27;;
69979;SDS011;57318;56.232;43.944;2024-01-25T14:13:00;16.95;;;5.82;;
69979;SDS011;57318;56.232;43.944;2024-01-25T14:15:26;18.25;;;6.72;;
69979;SDS011;57318;56.232;43.944;2024-01-25T14:17:51;24.20;;;7.80;;
69979;SDS011;57318;56.232;43.944;2024-01-25T14:20:17;18.25;;;7.60;;
69979;SDS011;57318;56.232;43.944;2024-01-25T14:22:43;14.82;;;5.35;;
69979;SDS011;57318;56.232;43.944;2024-01-25T14:25:09;12.70;;;6.15;;
69979;SDS011;57318;56.232;43.944;2024-01-25T14:27:35;18.67;;;7.13;;
69979;SDS011;57318;56.232;43.944;2024-01-25T14:30:01;20.77;;;7.37;;